sensor_id;sensor_type;location;lat;lon;timestamp;pressure;altitude;pressure_sealevel;temperature;humidity
56894;BME280;43392;50.078;13.704;2022-11-20T00:00:16;96534.91;;;-3.09;90.02
56894;BME280;43392;50.078;13.704;2022-11-20T00:02:42;96535.13;;;-3.10;89.54
56894;BME280;43392;50.078;13.704;2022-11-20T00:05:09;96531.69;;;-3.11;89.58
56894;BME280;43392;50.078;13.704;2022-11-20T00:07:35;96535.28;;;-3.12;89.59
56894;BME280;43392;50.078;13.704;2022-11-20T00:10:02;96543.38;;;-3.13;90.15
56894;BME280;43392;50.078;13.704;2022-11-20T00:12:29;96534.31;;;-3.11;89.91
56894;BME280;43392;50.078;13.704;2022-11-20T00:14:56;96539.72;;;-3.12;90.00
56894;BME280;43392;50.078;13.704;2022-11-20T00:17:24;96535.72;;;-3.08;90.18
56894;BME280;43392;50.078;13.704;2022-11-20T00:19:50;96540.16;;;-3.02;90.11
56894;BME280;43392;50.078;13.704;2022-11-20T00:22:17;96541.16;;;-2.97;90.15
56894;BME280;43392;50.078;13.704;2022-11-20T00:24:43;96534.94;;;-2.96;90.25
56894;BME280;43392;50.078;13.704;2022-11-20T00:27:10;96534.94;;;-2.96;90.23
56894;BME280;43392;50.078;13.704;2022-11-20T00:29:36;96527.06;;;-2.96;89.75
56894;BME280;43392;50.078;13.704;2022-11-20T00:32:03;96532.31;;;-2.96;90.16
56894;BME280;43392;50.078;13.704;2022-11-20T00:34:31;96535.53;;;-2.94;90.30
56894;BME280;43392;50.078;13.704;2022-11-20T00:36:58;96535.31;;;-2.92;90.21
56894;BME280;43392;50.078;13.704;2022-11-20T00:39:24;96544.59;;;-2.90;89.91
56894;BME280;43392;50.078;13.704;2022-11-20T00:41:51;96536.72;;;-2.90;90.24
56894;BME280;43392;50.078;13.704;2022-11-20T00:44:18;96548.25;;;-2.91;89.87
56894;BME280;43392;50.078;13.704;2022-11-20T00:46:44;96553.50;;;-2.91;90.22
56894;BME280;43392;50.078;13.704;2022-11-20T00:49:11;96557.72;;;-2.90;89.96
56894;BME280;43392;50.078;13.704;2022-11-20T00:51:39;96547.63;;;-2.93;89.71
56894;BME280;43392;50.078;13.704;2022-11-20T00:54:05;96549.84;;;-2.96;90.10
56894;BME280;43392;50.078;13.704;2022-11-20T00:56:32;96552.66;;;-2.98;90.27
56894;BME280;43392;50.078;13.704;2022-11-20T00:58:59;96551.25;;;-3.00;89.99
56894;BME280;43392;50.078;13.704;2022-11-20T01:01:27;96551.66;;;-3.03;90.62
56894;BME280;43392;50.078;13.704;2022-11-20T01:03:57;96549.66;;;-3.08;90.76
56894;BME280;43392;50.078;13.704;2022-11-20T01:06:25;96559.09;;;-3.07;90.39
56894;BME280;43392;50.078;13.704;2022-11-20T01:08:55;96560.53;;;-3.04;90.95
56894;BME280;43392;50.078;13.704;2022-11-20T01:11:23;96563.34;;;-2.99;90.90
56894;BME280;43392;50.078;13.704;2022-11-20T01:13:51;96561.75;;;-2.94;90.49
56894;BME280;43392;50.078;13.704;2022-11-20T01:16:21;96558.09;;;-2.93;90.39
56894;BME280;43392;50.078;13.704;2022-11-20T01:18:49;96564.38;;;-2.94;90.26
56894;BME280;43392;50.078;13.704;2022-11-20T01:21:17;96563.19;;;-2.91;90.61
56894;BME280;43392;50.078;13.704;2022-11-20T01:23:45;96564.16;;;-2.92;90.21
56894;BME280;43392;50.078;13.704;2022-11-20T01:26:15;96559.13;;;-2.94;90.44
56894;BME280;43392;50.078;13.704;2022-11-20T01:28:42;96564.56;;;-2.95;90.27
56894;BME280;43392;50.078;13.704;2022-11-20T01:31:13;96555.28;;;-2.98;90.37
56894;BME280;43392;50.078;13.704;2022-11-20T01:33:40;96556.91;;;-2.97;90.40
56894;BME280;43392;50.078;13.704;2022-11-20T01:36:08;96553.06;;;-2.94;90.35
56894;BME280;43392;50.078;13.704;2022-11-20T01:38:35;96548.66;;;-2.94;90.24
56894;BME280;43392;50.078;13.704;2022-11-20T01:41:02;96543.19;;;-2.92;90.21
56894;BME280;43392;50.078;13.704;2022-11-20T01:43:30;96543.00;;;-2.91;90.75
56894;BME280;43392;50.078;13.704;2022-11-20T01:46:05;96538.34;;;-2.89;90.64
56894;BME280;43392;50.078;13.704;2022-11-20T01:48:36;96537.31;;;-2.88;90.56
56894;BME280;43392;50.078;13.704;2022-11-20T01:51:06;96528.66;;;-2.88;90.43
56894;BME280;43392;50.078;13.704;2022-11-20T01:53:37;96533.09;;;-2.89;90.27
56894;BME280;43392;50.078;13.704;2022-11-20T01:56:06;96529.66;;;-2.89;89.91
56894;BME280;43392;50.078;13.704;2022-11-20T01:58:39;96512.13;;;-2.89;90.21
56894;BME280;43392;50.078;13.704;2022-11-20T02:01:08;96517.97;;;-2.87;90.00
56894;BME280;43392;50.078;13.704;2022-11-20T02:03:35;96507.28;;;-2.92;90.21
56894;BME280;43392;50.078;13.704;2022-11-20T02:06:06;96517.97;;;-2.87;90.53
56894;BME280;43392;50.078;13.704;2022-11-20T02:08:37;96519.56;;;-2.86;90.19
56894;BME280;43392;50.078;13.704;2022-11-20T02:11:04;96509.88;;;-2.85;89.90
56894;BME280;43392;50.078;13.704;2022-11-20T02:13:31;96510.28;;;-2.88;90.16
56894;BME280;43392;50.078;13.704;2022-11-20T02:16:13;96520.38;;;-2.92;90.39
56894;BME280;43392;50.078;13.704;2022-11-20T02:18:41;96513.13;;;-2.96;90.11
56894;BME280;43392;50.078;13.704;2022-11-20T02:21:16;96524.00;;;-2.93;90.36
56894;BME280;43392;50.078;13.704;2022-11-20T02:24:00;96520.38;;;-2.92;90.83
56894;BME280;43392;50.078;13.704;2022-11-20T02:26:28;96503.81;;;-2.86;90.33
56894;BME280;43392;50.078;13.704;2022-11-20T02:28:56;96513.31;;;-2.85;90.14
56894;BME280;43392;50.078;13.704;2022-11-20T02:31:24;96511.50;;;-2.84;90.61
56894;BME280;43392;50.078;13.704;2022-11-20T02:33:54;96500.81;;;-2.83;90.16
56894;BME280;43392;50.078;13.704;2022-11-20T02:36:21;96507.66;;;-2.88;90.40
56894;BME280;43392;50.078;13.704;2022-11-20T02:38:48;96496.56;;;-2.90;90.28
56894;BME280;43392;50.078;13.704;2022-11-20T02:41:17;96489.50;;;-2.90;90.46
56894;BME280;43392;50.078;13.704;2022-11-20T02:43:43;96493.94;;;-2.90;90.13
56894;BME280;43392;50.078;13.704;2022-11-20T02:46:10;96490.09;;;-2.88;90.57
56894;BME280;43392;50.078;13.704;2022-11-20T02:48:36;96488.50;;;-2.82;90.39
56894;BME280;43392;50.078;13.704;2022-11-20T02:51:03;96489.31;;;-2.82;91.03
56894;BME280;43392;50.078;13.704;2022-11-20T02:53:30;96491.53;;;-2.79;91.03
56894;BME280;43392;50.078;13.704;2022-11-20T02:55:56;96491.31;;;-2.77;91.07
56894;BME280;43392;50.078;13.704;2022-11-20T02:58:24;96479.81;;;-2.76;90.45
56894;BME280;43392;50.078;13.704;2022-11-20T03:00:52;96488.91;;;-2.72;90.49
56894;BME280;43392;50.078;13.704;2022-11-20T03:03:18;96484.25;;;-2.70;90.47
56894;BME280;43392;50.078;13.704;2022-11-20T03:05:45;96484.44;;;-2.65;90.83
56894;BME280;43392;50.078;13.704;2022-11-20T03:08:11;96476.34;;;-2.63;90.48
56894;BME280;43392;50.078;13.704;2022-11-20T03:10:38;96480.22;;;-2.59;90.69
56894;BME280;43392;50.078;13.704;2022-11-20T03:13:05;96480.22;;;-2.59;90.49
56894;BME280;43392;50.078;13.704;2022-11-20T03:15:32;96488.88;;;-2.59;90.25
56894;BME280;43392;50.078;13.704;2022-11-20T03:17:59;96487.25;;;-2.60;90.83
56894;BME280;43392;50.078;13.704;2022-11-20T03:20:26;96490.50;;;-2.58;90.62
56894;BME280;43392;50.078;13.704;2022-11-20T03:22:54;96491.31;;;-2.57;90.88
56894;BME280;43392;50.078;13.704;2022-11-20T03:25:21;96495.34;;;-2.55;90.81
56894;BME280;43392;50.078;13.704;2022-11-20T03:27:47;96484.84;;;-2.55;91.00
56894;BME280;43392;50.078;13.704;2022-11-20T03:30:14;96482.84;;;-2.59;90.88
56894;BME280;43392;50.078;13.704;2022-11-20T03:32:42;96489.28;;;-2.55;90.92
56894;BME280;43392;50.078;13.704;2022-11-20T03:35:09;96476.16;;;-2.55;91.16
56894;BME280;43392;50.078;13.704;2022-11-20T03:37:36;96484.03;;;-2.55;90.96
56894;BME280;43392;50.078;13.704;2022-11-20T03:40:03;96487.47;;;-2.55;91.52
56894;BME280;43392;50.078;13.704;2022-11-20T03:42:30;96493.72;;;-2.56;91.40
56894;BME280;43392;50.078;13.704;2022-11-20T03:45:12;96480.81;;;-2.57;91.73
56894;BME280;43392;50.078;13.704;2022-11-20T03:47:39;96491.31;;;-2.57;91.34
56894;BME280;43392;50.078;13.704;2022-11-20T03:50:07;96492.13;;;-2.57;91.34
56894;BME280;43392;50.078;13.704;2022-11-20T03:52:34;96486.44;;;-2.54;91.51
56894;BME280;43392;50.078;13.704;2022-11-20T03:55:01;96492.31;;;-2.52;91.43
56894;BME280;43392;50.078;13.704;2022-11-20T03:57:28;96496.31;;;-2.49;91.47
56894;BME280;43392;50.078;13.704;2022-11-20T03:59:54;96492.47;;;-2.47;91.15
56894;BME280;43392;50.078;13.704;2022-11-20T04:02:21;96485.63;;;-2.48;91.55
56894;BME280;43392;50.078;13.704;2022-11-20T04:04:48;96483.00;;;-2.48;91.74
56894;BME280;43392;50.078;13.704;2022-11-20T04:07:16;96479.78;;;-2.50;91.34
56894;BME280;43392;50.078;13.704;2022-11-20T04:09:42;96481.59;;;-2.50;91.04
56894;BME280;43392;50.078;13.704;2022-11-20T04:12:09;96484.00;;;-2.49;91.84
56894;BME280;43392;50.078;13.704;2022-11-20T04:14:35;96478.56;;;-2.47;91.66
56894;BME280;43392;50.078;13.704;2022-11-20T04:17:03;96489.66;;;-2.45;91.27
56894;BME280;43392;50.078;13.704;2022-11-20T04:19:29;96481.78;;;-2.45;90.89
56894;BME280;43392;50.078;13.704;2022-11-20T04:21:56;96483.59;;;-2.46;90.86
56894;BME280;43392;50.078;13.704;2022-11-20T04:24:24;96477.53;;;-2.46;91.44
56894;BME280;43392;50.078;13.704;2022-11-20T04:26:50;96469.66;;;-2.46;91.49
56894;BME280;43392;50.078;13.704;2022-11-20T04:29:17;96470.25;;;-2.44;91.23
56894;BME280;43392;50.078;13.704;2022-11-20T04:31:44;96467.84;;;-2.46;91.47
56894;BME280;43392;50.078;13.704;2022-11-20T04:34:11;96465.44;;;-2.47;91.29
56894;BME280;43392;50.078;13.704;2022-11-20T04:36:37;96459.16;;;-2.46;91.56
56894;BME280;43392;50.078;13.704;2022-11-20T04:39:05;96463.41;;;-2.45;91.25
56894;BME280;43392;50.078;13.704;2022-11-20T04:41:35;96459.38;;;-2.48;91.09
56894;BME280;43392;50.078;13.704;2022-11-20T04:44:04;96457.56;;;-2.47;91.66
56894;BME280;43392;50.078;13.704;2022-11-20T04:46:33;96454.50;;;-2.44;91.40
56894;BME280;43392;50.078;13.704;2022-11-20T04:48:59;96459.34;;;-2.41;92.13
56894;BME280;43392;50.078;13.704;2022-11-20T04:51:26;96461.34;;;-2.37;91.70
56894;BME280;43392;50.078;13.704;2022-11-20T04:53:53;96460.72;;;-2.32;91.48
56894;BME280;43392;50.078;13.704;2022-11-20T04:56:20;96460.53;;;-2.31;91.41
56894;BME280;43392;50.078;13.704;2022-11-20T04:58:48;96466.59;;;-2.30;91.61
56894;BME280;43392;50.078;13.704;2022-11-20T05:01:17;96463.34;;;-2.32;91.55
56894;BME280;43392;50.078;13.704;2022-11-20T05:03:44;96467.00;;;-2.33;91.63
56894;BME280;43392;50.078;13.704;2022-11-20T05:06:13;96459.53;;;-2.36;91.82
56894;BME280;43392;50.078;13.704;2022-11-20T05:08:40;96456.91;;;-2.36;92.07
56894;BME280;43392;50.078;13.704;2022-11-20T05:11:08;96453.69;;;-2.38;91.60
56894;BME280;43392;50.078;13.704;2022-11-20T05:13:36;96461.56;;;-2.38;92.02
56894;BME280;43392;50.078;13.704;2022-11-20T05:16:05;96472.66;;;-2.36;91.61
56894;BME280;43392;50.078;13.704;2022-11-20T05:18:33;96474.28;;;-2.42;91.81
56894;BME280;43392;50.078;13.704;2022-11-20T05:20:59;96476.13;;;-2.42;92.22
56894;BME280;43392;50.078;13.704;2022-11-20T05:23:26;96474.28;;;-2.42;91.59
56894;BME280;43392;50.078;13.704;2022-11-20T05:25:54;96464.59;;;-2.41;91.75
56894;BME280;43392;50.078;13.704;2022-11-20T05:28:21;96470.44;;;-2.39;92.11
56894;BME280;43392;50.078;13.704;2022-11-20T05:30:48;96473.06;;;-2.39;92.23
56894;BME280;43392;50.078;13.704;2022-11-20T05:33:17;96467.81;;;-2.39;91.60
56894;BME280;43392;50.078;13.704;2022-11-20T05:35:44;96465.81;;;-2.44;91.72
56894;BME280;43392;50.078;13.704;2022-11-20T05:38:10;96469.66;;;-2.40;92.18
56894;BME280;43392;50.078;13.704;2022-11-20T05:40:37;96471.25;;;-2.39;92.07
56894;BME280;43392;50.078;13.704;2022-11-20T05:43:04;96458.94;;;-2.38;91.77
56894;BME280;43392;50.078;13.704;2022-11-20T05:45:30;96460.53;;;-2.37;92.22
56894;BME280;43392;50.078;13.704;2022-11-20T05:47:58;96471.03;;;-2.37;91.58
56894;BME280;43392;50.078;13.704;2022-11-20T05:50:26;96445.41;;;-2.35;92.02
56894;BME280;43392;50.078;13.704;2022-11-20T05:52:52;96452.47;;;-2.36;91.27
56894;BME280;43392;50.078;13.704;2022-11-20T05:55:19;96461.94;;;-2.35;91.59
56894;BME280;43392;50.078;13.704;2022-11-20T05:57:45;96456.91;;;-2.36;91.31
56894;BME280;43392;50.078;13.704;2022-11-20T06:00:14;96456.69;;;-2.35;91.66
56894;BME280;43392;50.078;13.704;2022-11-20T06:02:40;96459.53;;;-2.36;91.32
56894;BME280;43392;50.078;13.704;2022-11-20T06:05:08;96465.00;;;-2.38;91.55
56894;BME280;43392;50.078;13.704;2022-11-20T06:07:36;96472.88;;;-2.44;91.11
56894;BME280;43392;50.078;13.704;2022-11-20T06:10:03;96465.00;;;-2.44;91.97
56894;BME280;43392;50.078;13.704;2022-11-20T06:12:31;96456.94;;;-2.43;91.45
56894;BME280;43392;50.078;13.704;2022-11-20T06:14:58;96454.91;;;-2.41;92.20
56894;BME280;43392;50.078;13.704;2022-11-20T06:17:26;96446.44;;;-2.43;91.94
56894;BME280;43392;50.078;13.704;2022-11-20T06:19:52;96435.53;;;-2.46;91.34
56894;BME280;43392;50.078;13.704;2022-11-20T06:22:19;96425.03;;;-2.40;91.15
56894;BME280;43392;50.078;13.704;2022-11-20T06:24:47;96410.66;;;-2.31;91.03
56894;BME280;43392;50.078;13.704;2022-11-20T06:27:14;96407.19;;;-2.25;90.29
56894;BME280;43392;50.078;13.704;2022-11-20T06:29:40;96401.94;;;-2.25;90.66
56894;BME280;43392;50.078;13.704;2022-11-20T06:32:07;96397.31;;;-2.29;90.32
56894;BME280;43392;50.078;13.704;2022-11-20T06:34:33;96411.81;;;-2.20;90.67
56894;BME280;43392;50.078;13.704;2022-11-20T06:37:00;96429.19;;;-2.19;90.63
56894;BME280;43392;50.078;13.704;2022-11-20T06:39:27;96439.09;;;-2.21;90.90
56894;BME280;43392;50.078;13.704;2022-11-20T06:41:55;96438.69;;;-2.18;91.23
56894;BME280;43392;50.078;13.704;2022-11-20T06:44:22;96443.31;;;-2.14;91.22
56894;BME280;43392;50.078;13.704;2022-11-20T06:46:49;96441.06;;;-2.10;90.95
56894;BME280;43392;50.078;13.704;2022-11-20T06:49:15;96438.84;;;-2.07;91.16
56894;BME280;43392;50.078;13.704;2022-11-20T06:51:42;96441.81;;;-2.03;91.11
56894;BME280;43392;50.078;13.704;2022-11-20T06:54:08;96438.19;;;-2.02;91.09
56894;BME280;43392;50.078;13.704;2022-11-20T06:56:35;96443.81;;;-1.98;90.62
56894;BME280;43392;50.078;13.704;2022-11-20T06:59:05;96446.84;;;-1.95;90.70
56894;BME280;43392;50.078;13.704;2022-11-20T07:01:32;96445.84;;;-1.94;90.64
56894;BME280;43392;50.078;13.704;2022-11-20T07:04:00;96440.97;;;-1.90;91.15
56894;BME280;43392;50.078;13.704;2022-11-20T07:06:27;96431.84;;;-1.88;91.13
56894;BME280;43392;50.078;13.704;2022-11-20T07:08:53;96441.97;;;-1.85;90.54
56894;BME280;43392;50.078;13.704;2022-11-20T07:11:20;96453.06;;;-1.83;90.57
56894;BME280;43392;50.078;13.704;2022-11-20T07:13:47;96448.19;;;-1.79;90.33
56894;BME280;43392;50.078;13.704;2022-11-20T07:16:15;96441.91;;;-1.78;90.29
56894;BME280;43392;50.078;13.704;2022-11-20T07:18:42;96447.97;;;-1.78;90.86
56894;BME280;43392;50.078;13.704;2022-11-20T07:21:10;96444.72;;;-1.73;90.88
56894;BME280;43392;50.078;13.704;2022-11-20T07:23:36;96445.91;;;-1.69;90.83
56894;BME280;43392;50.078;13.704;2022-11-20T07:26:04;96449.72;;;-1.65;90.74
56894;BME280;43392;50.078;13.704;2022-11-20T07:28:31;96447.69;;;-1.63;90.84
56894;BME280;43392;50.078;13.704;2022-11-20T07:30:57;96451.72;;;-1.61;90.80
56894;BME280;43392;50.078;13.704;2022-11-20T07:33:25;96438.59;;;-1.61;90.48
56894;BME280;43392;50.078;13.704;2022-11-20T07:35:52;96448.88;;;-1.59;90.38
56894;BME280;43392;50.078;13.704;2022-11-20T07:38:19;96428.44;;;-1.57;90.54
56894;BME280;43392;50.078;13.704;2022-11-20T07:40:45;96435.91;;;-1.54;90.40
56894;BME280;43392;50.078;13.704;2022-11-20T07:43:12;96435.25;;;-1.50;90.49
56894;BME280;43392;50.078;13.704;2022-11-20T07:45:38;96431.22;;;-1.46;90.60
56894;BME280;43392;50.078;13.704;2022-11-20T07:48:05;96427.13;;;-1.42;90.05
56894;BME280;43392;50.078;13.704;2022-11-20T07:50:33;96429.53;;;-1.40;90.39
56894;BME280;43392;50.078;13.704;2022-11-20T07:53:01;96429.09;;;-1.37;90.33
56894;BME280;43392;50.078;13.704;2022-11-20T07:55:28;96428.47;;;-1.33;90.67
56894;BME280;43392;50.078;13.704;2022-11-20T07:57:55;96437.97;;;-1.31;90.47
56894;BME280;43392;50.078;13.704;2022-11-20T08:00:22;96431.69;;;-1.30;90.00
56894;BME280;43392;50.078;13.704;2022-11-20T08:02:49;96428.28;;;-1.31;90.01
56894;BME280;43392;50.078;13.704;2022-11-20T08:05:16;96430.09;;;-1.31;90.21
56894;BME280;43392;50.078;13.704;2022-11-20T08:07:44;96418.34;;;-1.29;90.48
56894;BME280;43392;50.078;13.704;2022-11-20T08:10:12;96409.63;;;-1.29;90.55
56894;BME280;43392;50.078;13.704;2022-11-20T08:12:44;96423.97;;;-1.25;90.55
56894;BME280;43392;50.078;13.704;2022-11-20T08:15:28;96411.38;;;-1.23;90.83
56894;BME280;43392;50.078;13.704;2022-11-20T08:17:59;96414.84;;;-1.23;90.84
56894;BME280;43392;50.078;13.704;2022-11-20T08:20:26;96413.59;;;-1.20;90.59
56894;BME280;43392;50.078;13.704;2022-11-20T08:22:58;96409.16;;;-1.20;90.20
56894;BME280;43392;50.078;13.704;2022-11-20T08:25:26;96403.66;;;-1.18;90.35
56894;BME280;43392;50.078;13.704;2022-11-20T08:27:52;96408.94;;;-1.18;90.01
56894;BME280;43392;50.078;13.704;2022-11-20T08:30:19;96413.75;;;-1.15;90.44
56894;BME280;43392;50.078;13.704;2022-11-20T08:32:46;96413.75;;;-1.15;90.34
56894;BME280;43392;50.078;13.704;2022-11-20T08:35:12;96415.38;;;-1.14;90.31
56894;BME280;43392;50.078;13.704;2022-11-20T08:37:39;96410.13;;;-1.14;90.45
56894;BME280;43392;50.078;13.704;2022-11-20T08:40:09;96401.00;;;-1.12;90.54
56894;BME280;43392;50.078;13.704;2022-11-20T08:42:36;96402.59;;;-1.11;90.20
56894;BME280;43392;50.078;13.704;2022-11-20T08:45:04;96402.81;;;-1.12;90.48
56894;BME280;43392;50.078;13.704;2022-11-20T08:47:31;96400.13;;;-1.06;90.73
56894;BME280;43392;50.078;13.704;2022-11-20T08:49:57;96404.72;;;-1.01;90.83
56894;BME280;43392;50.078;13.704;2022-11-20T08:52:24;96405.31;;;-0.99;90.45
56894;BME280;43392;50.078;13.704;2022-11-20T08:54:50;96397.81;;;-0.96;90.69
56894;BME280;43392;50.078;13.704;2022-11-20T08:57:18;96394.53;;;-0.91;90.66
56894;BME280;43392;50.078;13.704;2022-11-20T08:59:45;96382.09;;;-0.84;90.10
56894;BME280;43392;50.078;13.704;2022-11-20T09:02:12;96383.50;;;-0.82;90.21
56894;BME280;43392;50.078;13.704;2022-11-20T09:04:38;96390.38;;;-0.81;90.12
56894;BME280;43392;50.078;13.704;2022-11-20T09:07:05;96389.56;;;-0.81;89.80
56894;BME280;43392;50.078;13.704;2022-11-20T09:09:31;96397.22;;;-0.80;90.35
56894;BME280;43392;50.078;13.704;2022-11-20T09:11:58;96396.22;;;-0.79;90.21
56894;BME280;43392;50.078;13.704;2022-11-20T09:14:26;96398.03;;;-0.79;90.24
56894;BME280;43392;50.078;13.704;2022-11-20T09:16:55;96387.31;;;-0.78;90.54
56894;BME280;43392;50.078;13.704;2022-11-20T09:19:23;96384.03;;;-0.73;90.16
56894;BME280;43392;50.078;13.704;2022-11-20T09:21:49;96378.09;;;-0.69;90.44
56894;BME280;43392;50.078;13.704;2022-11-20T09:24:16;96396.69;;;-0.63;89.99
56894;BME280;43392;50.078;13.704;2022-11-20T09:26:43;96397.03;;;-0.60;90.18
56894;BME280;43392;50.078;13.704;2022-11-20T09:29:10;96386.66;;;-0.55;89.77
56894;BME280;43392;50.078;13.704;2022-11-20T09:31:38;96389.66;;;-0.51;89.89
56894;BME280;43392;50.078;13.704;2022-11-20T09:34:05;96381.75;;;-0.51;90.00
56894;BME280;43392;50.078;13.704;2022-11-20T09:36:31;96383.72;;;-0.47;89.78
56894;BME280;43392;50.078;13.704;2022-11-20T09:38:58;96378.97;;;-0.38;89.85
56894;BME280;43392;50.078;13.704;2022-11-20T09:41:38;96368.38;;;-0.32;89.71
56894;BME280;43392;50.078;13.704;2022-11-20T09:44:30;96371.06;;;-0.20;89.29
56894;BME280;43392;50.078;13.704;2022-11-20T09:47:07;96376.81;;;-0.12;89.03
56894;BME280;43392;50.078;13.704;2022-11-20T09:49:48;96395.72;;;-0.15;88.91
56894;BME280;43392;50.078;13.704;2022-11-20T09:52:26;96400.38;;;-0.17;89.43
56894;BME280;43392;50.078;13.704;2022-11-20T09:54:58;96393.50;;;-0.18;89.51
56894;BME280;43392;50.078;13.704;2022-11-20T09:57:33;96383.78;;;-0.17;89.44
56894;BME280;43392;50.078;13.704;2022-11-20T10:00:02;96369.13;;;-0.13;89.70
56894;BME280;43392;50.078;13.704;2022-11-20T10:02:37;96364.19;;;-0.10;89.38
56894;BME280;43392;50.078;13.704;2022-11-20T10:05:10;96379.13;;;-0.04;89.18
56894;BME280;43392;50.078;13.704;2022-11-20T10:07:43;96370.31;;;0.03;89.11
56894;BME280;43392;50.078;13.704;2022-11-20T10:10:15;96367.81;;;0.08;88.78
56894;BME280;43392;50.078;13.704;2022-11-20T10:12:54;96359.72;;;0.09;88.84
56894;BME280;43392;50.078;13.704;2022-11-20T10:15:32;96365.19;;;0.08;89.36
56894;BME280;43392;50.078;13.704;2022-11-20T10:18:20;96356.63;;;0.12;88.69
56894;BME280;43392;50.078;13.704;2022-11-20T10:20:55;96358.00;;;0.15;88.78
56894;BME280;43392;50.078;13.704;2022-11-20T10:26:22;96342.81;;;0.28;88.32
56894;BME280;43392;50.078;13.704;2022-11-20T10:29:07;96341.09;;;0.34;88.43
56894;BME280;43392;50.078;13.704;2022-11-20T10:31:38;96336.06;;;0.44;88.23
56894;BME280;43392;50.078;13.704;2022-11-20T10:34:14;96325.75;;;0.54;87.98
56894;BME280;43392;50.078;13.704;2022-11-20T10:36:44;96329.78;;;0.56;87.94
56894;BME280;43392;50.078;13.704;2022-11-20T10:39:14;96335.03;;;0.56;87.63
56894;BME280;43392;50.078;13.704;2022-11-20T10:41:44;96327.63;;;0.65;87.75
56894;BME280;43392;50.078;13.704;2022-11-20T10:44:15;96337.00;;;0.61;87.84
56894;BME280;43392;50.078;13.704;2022-11-20T10:47:04;96342.16;;;0.56;87.84
56894;BME280;43392;50.078;13.704;2022-11-20T10:49:33;96343.41;;;0.53;87.93
56894;BME280;43392;50.078;13.704;2022-11-20T10:52:06;96333.91;;;0.52;88.07
56894;BME280;43392;50.078;13.704;2022-11-20T10:54:40;96337.09;;;0.54;87.98
56894;BME280;43392;50.078;13.704;2022-11-20T10:57:20;96324.28;;;0.58;88.07
56894;BME280;43392;50.078;13.704;2022-11-20T11:00:05;96324.28;;;0.58;87.85
56894;BME280;43392;50.078;13.704;2022-11-20T11:02:35;96322.34;;;0.65;87.86
56894;BME280;43392;50.078;13.704;2022-11-20T11:05:20;96315.22;;;0.77;87.68
56894;BME280;43392;50.078;13.704;2022-11-20T11:07:50;96306.38;;;0.83;87.83
56894;BME280;43392;50.078;13.704;2022-11-20T11:10:24;96310.06;;;0.94;87.47
56894;BME280;43392;50.078;13.704;2022-11-20T11:12:51;96314.88;;;0.97;87.21
56894;BME280;43392;50.078;13.704;2022-11-20T11:15:26;96322.88;;;1.02;87.41
56894;BME280;43392;50.078;13.704;2022-11-20T11:17:53;96319.47;;;1.01;87.29
56894;BME280;43392;50.078;13.704;2022-11-20T11:20:22;96324.50;;;1.03;87.50
56894;BME280;43392;50.078;13.704;2022-11-20T11:22:51;96334.84;;;0.93;87.09
56894;BME280;43392;50.078;13.704;2022-11-20T11:25:24;96305.25;;;0.79;87.48
56894;BME280;43392;50.078;13.704;2022-11-20T11:27:52;96314.66;;;0.75;88.21
56894;BME280;43392;50.078;13.704;2022-11-20T11:30:20;96325.44;;;0.74;88.36
56894;BME280;43392;50.078;13.704;2022-11-20T11:32:47;96308.78;;;0.73;87.88
56894;BME280;43392;50.078;13.704;2022-11-20T11:35:24;96306.16;;;0.61;87.93
56894;BME280;43392;50.078;13.704;2022-11-20T11:37:52;96305.25;;;0.68;88.29
56894;BME280;43392;50.078;13.704;2022-11-20T11:40:21;96294.56;;;0.74;88.33
56894;BME280;43392;50.078;13.704;2022-11-20T11:42:54;96299.16;;;0.79;88.52
56894;BME280;43392;50.078;13.704;2022-11-20T11:45:21;96292.06;;;0.79;88.28
56894;BME280;43392;50.078;13.704;2022-11-20T11:47:48;96293.44;;;0.82;88.66
56894;BME280;43392;50.078;13.704;2022-11-20T11:50:19;96289.53;;;0.84;88.70
56894;BME280;43392;50.078;13.704;2022-11-20T11:52:55;96287.69;;;0.85;88.72
56894;BME280;43392;50.078;13.704;2022-11-20T11:55:29;96271.06;;;0.73;89.03
56894;BME280;43392;50.078;13.704;2022-11-20T11:58:06;96268.63;;;0.71;89.19
56894;BME280;43392;50.078;13.704;2022-11-20T12:00:37;96257.88;;;0.73;89.07
56894;BME280;43392;50.078;13.704;2022-11-20T12:03:09;96257.97;;;0.78;89.27
56894;BME280;43392;50.078;13.704;2022-11-20T12:05:43;96261.50;;;0.83;89.45
56894;BME280;43392;50.078;13.704;2022-11-20T12:08:15;96269.44;;;0.83;89.33
56894;BME280;43392;50.078;13.704;2022-11-20T12:10:46;96259.44;;;0.85;89.13
56894;BME280;43392;50.078;13.704;2022-11-20T12:13:24;96262.19;;;0.90;89.49
56894;BME280;43392;50.078;13.704;2022-11-20T12:15:53;96232.56;;;1.00;89.17
56894;BME280;43392;50.078;13.704;2022-11-20T12:18:21;96242.69;;;1.43;88.26
56894;BME280;43392;50.078;13.704;2022-11-20T12:21:03;96230.66;;;1.80;87.04
56894;BME280;43392;50.078;13.704;2022-11-20T12:23:44;96241.97;;;1.75;87.10
56894;BME280;43392;50.078;13.704;2022-11-20T12:26:18;96249.38;;;1.62;87.32
56894;BME280;43392;50.078;13.704;2022-11-20T12:28:55;96249.91;;;1.47;87.76
56894;BME280;43392;50.078;13.704;2022-11-20T12:31:36;96254.53;;;1.40;88.26
56894;BME280;43392;50.078;13.704;2022-11-20T12:34:18;96257.97;;;1.29;88.43
56894;BME280;43392;50.078;13.704;2022-11-20T12:36:52;96252.59;;;1.24;88.65
56894;BME280;43392;50.078;13.704;2022-11-20T12:39:46;96257.56;;;1.20;88.80
56894;BME280;43392;50.078;13.704;2022-11-20T12:42:35;96255.13;;;1.19;89.21
56894;BME280;43392;50.078;13.704;2022-11-20T12:45:34;96259.75;;;1.12;89.48
56894;BME280;43392;50.078;13.704;2022-11-20T12:48:20;96264.13;;;1.06;89.83
56894;BME280;43392;50.078;13.704;2022-11-20T12:51:03;96254.25;;;1.02;89.50
56894;BME280;43392;50.078;13.704;2022-11-20T12:53:37;96251.03;;;1.00;89.89
56894;BME280;43392;50.078;13.704;2022-11-20T12:56:17;96249.78;;;1.02;89.82
56894;BME280;43392;50.078;13.704;2022-11-20T12:58:54;96229.19;;;1.27;89.14
56894;BME280;43392;50.078;13.704;2022-11-20T13:01:32;96204.06;;;1.70;88.20
56894;BME280;43392;50.078;13.704;2022-11-20T13:04:12;96210.25;;;1.75;88.06
56894;BME280;43392;50.078;13.704;2022-11-20T13:06:40;96226.44;;;1.51;88.68